sensor_id;sensor_type;location;lat;lon;timestamp;P1;durP1;ratioP1;P2;durP2;ratioP2
49139;SDS011;34959;49.310;8.646;2023-05-21T00:01:16;2.20;;;1.88;;
49139;SDS011;34959;49.310;8.646;2023-05-21T00:03:42;2.45;;;2.08;;
49139;SDS011;34959;49.310;8.646;2023-05-21T00:06:09;3.03;;;1.92;;
49139;SDS011;34959;49.310;8.646;2023-05-21T00:08:37;2.40;;;1.95;;
49139;SDS011;34959;49.310;8.646;2023-05-21T00:11:03;2.80;;;1.92;;
49139;SDS011;34959;49.310;8.646;2023-05-21T00:13:28;1.65;;;1.55;;
49139;SDS011;34959;49.310;8.646;2023-05-21T00:15:53;2.13;;;1.80;;
49139;SDS011;34959;49.310;8.646;2023-05-21T00:18:19;2.03;;;1.80;;
49139;SDS011;34959;49.310;8.646;2023-05-21T00:20:46;2.20;;;2.00;;
49139;SDS011;34959;49.310;8.646;2023-05-21T00:23:11;2.10;;;1.90;;
49139;SDS011;34959;49.310;8.646;2023-05-21T00:25:37;2.38;;;2.00;;
49139;SDS011;34959;49.310;8.646;2023-05-21T00:28:02;2.15;;;1.95;;
49139;SDS011;34959;49.310;8.646;2023-05-21T00:30:28;2.40;;;2.10;;
49139;SDS011;34959;49.310;8.646;2023-05-21T00:32:53;1.90;;;1.80;;
49139;SDS011;34959;49.310;8.646;2023-05-21T00:35:19;2.50;;;2.28;;
49139;SDS011;34959;49.310;8.646;2023-05-21T00:37:44;2.40;;;1.90;;
49139;SDS011;34959;49.310;8.646;2023-05-21T00:40:11;2.45;;;2.03;;
49139;SDS011;34959;49.310;8.646;2023-05-21T00:42:37;2.40;;;1.95;;
49139;SDS011;34959;49.310;8.646;2023-05-21T00:45:04;2.22;;;1.95;;
49139;SDS011;34959;49.310;8.646;2023-05-21T00:47:30;2.70;;;2.10;;
49139;SDS011;34959;49.310;8.646;2023-05-21T00:49:55;2.17;;;1.83;;
49139;SDS011;34959;49.310;8.646;2023-05-21T00:52:21;2.70;;;1.92;;
49139;SDS011;34959;49.310;8.646;2023-05-21T00:54:50;2.42;;;2.22;;
49139;SDS011;34959;49.310;8.646;2023-05-21T00:57:16;2.38;;;2.10;;
49139;SDS011;34959;49.310;8.646;2023-05-21T00:59:45;2.20;;;2.00;;
49139;SDS011;34959;49.310;8.646;2023-05-21T01:02:11;2.33;;;2.00;;
49139;SDS011;34959;49.310;8.646;2023-05-21T01:04:38;2.13;;;1.90;;
49139;SDS011;34959;49.310;8.646;2023-05-21T01:07:04;2.25;;;2.05;;
49139;SDS011;34959;49.310;8.646;2023-05-21T01:09:30;2.22;;;2.00;;
49139;SDS011;34959;49.310;8.646;2023-05-21T01:11:55;2.20;;;1.98;;
49139;SDS011;34959;49.310;8.646;2023-05-21T01:14:21;2.28;;;2.00;;
49139;SDS011;34959;49.310;8.646;2023-05-21T01:16:48;2.40;;;2.10;;
49139;SDS011;34959;49.310;8.646;2023-05-21T01:19:15;2.88;;;2.20;;
49139;SDS011;34959;49.310;8.646;2023-05-21T01:21:46;2.40;;;2.20;;
49139;SDS011;34959;49.310;8.646;2023-05-21T01:24:15;2.40;;;2.20;;
49139;SDS011;34959;49.310;8.646;2023-05-21T01:26:40;2.30;;;2.00;;
49139;SDS011;34959;49.310;8.646;2023-05-21T01:29:08;2.63;;;2.25;;
49139;SDS011;34959;49.310;8.646;2023-05-21T01:31:41;2.40;;;2.20;;
49139;SDS011;34959;49.310;8.646;2023-05-21T01:34:08;2.90;;;1.95;;
49139;SDS011;34959;49.310;8.646;2023-05-21T01:36:37;2.20;;;1.90;;
49139;SDS011;34959;49.310;8.646;2023-05-21T01:39:13;2.40;;;2.10;;
49139;SDS011;34959;49.310;8.646;2023-05-21T01:41:42;3.33;;;2.30;;
49139;SDS011;34959;49.310;8.646;2023-05-21T01:44:09;2.85;;;2.25;;
49139;SDS011;34959;49.310;8.646;2023-05-21T01:46:35;2.20;;;1.85;;
49139;SDS011;34959;49.310;8.646;2023-05-21T01:49:01;2.25;;;1.88;;
49139;SDS011;34959;49.310;8.646;2023-05-21T01:51:26;2.50;;;2.00;;
49139;SDS011;34959;49.310;8.646;2023-05-21T01:53:52;2.47;;;2.25;;
49139;SDS011;34959;49.310;8.646;2023-05-21T01:56:17;2.47;;;2.25;;
49139;SDS011;34959;49.310;8.646;2023-05-21T01:58:43;2.67;;;2.38;;
49139;SDS011;34959;49.310;8.646;2023-05-21T02:01:08;2.60;;;2.13;;
49139;SDS011;34959;49.310;8.646;2023-05-21T02:03:34;2.58;;;2.10;;
49139;SDS011;34959;49.310;8.646;2023-05-21T02:05:59;2.42;;;2.15;;
49139;SDS011;34959;49.310;8.646;2023-05-21T02:08:25;2.40;;;2.10;;
49139;SDS011;34959;49.310;8.646;2023-05-21T02:10:51;2.15;;;1.95;;
49139;SDS011;34959;49.310;8.646;2023-05-21T02:13:16;2.60;;;2.30;;
49139;SDS011;34959;49.310;8.646;2023-05-21T02:15:46;2.42;;;2.00;;
49139;SDS011;34959;49.310;8.646;2023-05-21T02:18:12;3.05;;;2.40;;
49139;SDS011;34959;49.310;8.646;2023-05-21T02:20:40;2.55;;;2.35;;
49139;SDS011;34959;49.310;8.646;2023-05-21T02:23:07;2.45;;;2.25;;
49139;SDS011;34959;49.310;8.646;2023-05-21T02:25:32;2.80;;;2.28;;
49139;SDS011;34959;49.310;8.646;2023-05-21T02:27:57;3.35;;;2.78;;
49139;SDS011;34959;49.310;8.646;2023-05-21T02:30:23;2.60;;;2.40;;
49139;SDS011;34959;49.310;8.646;2023-05-21T02:32:48;2.42;;;2.22;;
49139;SDS011;34959;49.310;8.646;2023-05-21T02:35:14;3.25;;;2.38;;
49139;SDS011;34959;49.310;8.646;2023-05-21T02:37:40;2.83;;;2.53;;
49139;SDS011;34959;49.310;8.646;2023-05-21T02:40:07;3.35;;;2.58;;
49139;SDS011;34959;49.310;8.646;2023-05-21T02:42:36;2.58;;;2.38;;
49139;SDS011;34959;49.310;8.646;2023-05-21T02:45:04;2.92;;;2.45;;
49139;SDS011;34959;49.310;8.646;2023-05-21T02:47:31;2.65;;;2.38;;
49139;SDS011;34959;49.310;8.646;2023-05-21T02:49:57;2.63;;;2.42;;
49139;SDS011;34959;49.310;8.646;2023-05-21T02:52:23;3.20;;;2.50;;
49139;SDS011;34959;49.310;8.646;2023-05-21T02:54:48;2.90;;;2.53;;
49139;SDS011;34959;49.310;8.646;2023-05-21T02:57:14;3.00;;;2.58;;
49139;SDS011;34959;49.310;8.646;2023-05-21T02:59:39;2.65;;;2.45;;
49139;SDS011;34959;49.310;8.646;2023-05-21T03:02:05;2.63;;;2.33;;
49139;SDS011;34959;49.310;8.646;2023-05-21T03:04:30;3.55;;;2.85;;
49139;SDS011;34959;49.310;8.646;2023-05-21T03:06:57;3.40;;;2.88;;
49139;SDS011;34959;49.310;8.646;2023-05-21T03:09:26;3.03;;;2.70;;
49139;SDS011;34959;49.310;8.646;2023-05-21T03:11:51;2.67;;;2.47;;
49139;SDS011;34959;49.310;8.646;2023-05-21T03:14:16;3.13;;;2.83;;
49139;SDS011;34959;49.310;8.646;2023-05-21T03:16:42;3.30;;;2.60;;
49139;SDS011;34959;49.310;8.646;2023-05-21T03:19:11;4.03;;;2.53;;
49139;SDS011;34959;49.310;8.646;2023-05-21T03:21:37;2.83;;;2.53;;
49139;SDS011;34959;49.310;8.646;2023-05-21T03:24:05;3.00;;;2.42;;
49139;SDS011;34959;49.310;8.646;2023-05-21T03:26:31;2.85;;;2.55;;
49139;SDS011;34959;49.310;8.646;2023-05-21T03:28:57;2.60;;;2.38;;
49139;SDS011;34959;49.310;8.646;2023-05-21T03:31:23;3.13;;;2.75;;
49139;SDS011;34959;49.310;8.646;2023-05-21T03:33:49;2.97;;;2.55;;
49139;SDS011;34959;49.310;8.646;2023-05-21T03:36:15;2.85;;;2.55;;
49139;SDS011;34959;49.310;8.646;2023-05-21T03:38:41;3.08;;;2.78;;
49139;SDS011;34959;49.310;8.646;2023-05-21T03:41:07;2.58;;;2.38;;
49139;SDS011;34959;49.310;8.646;2023-05-21T03:43:32;2.55;;;2.35;;
49139;SDS011;34959;49.310;8.646;2023-05-21T03:45:58;2.83;;;2.50;;
49139;SDS011;34959;49.310;8.646;2023-05-21T03:48:23;3.05;;;2.75;;
49139;SDS011;34959;49.310;8.646;2023-05-21T03:50:48;2.75;;;2.40;;
49139;SDS011;34959;49.310;8.646;2023-05-21T03:53:14;2.97;;;2.60;;
49139;SDS011;34959;49.310;8.646;2023-05-21T03:55:39;2.83;;;2.50;;
49139;SDS011;34959;49.310;8.646;2023-05-21T03:58:05;3.10;;;2.80;;
49139;SDS011;34959;49.310;8.646;2023-05-21T04:00:30;2.90;;;2.50;;
49139;SDS011;34959;49.310;8.646;2023-05-21T04:02:56;3.10;;;2.63;;
49139;SDS011;34959;49.310;8.646;2023-05-21T04:05:22;3.10;;;2.75;;
49139;SDS011;34959;49.310;8.646;2023-05-21T04:07:48;2.78;;;2.40;;
49139;SDS011;34959;49.310;8.646;2023-05-21T04:10:14;3.13;;;2.53;;
49139;SDS011;34959;49.310;8.646;2023-05-21T04:12:39;3.13;;;2.78;;
49139;SDS011;34959;49.310;8.646;2023-05-21T04:15:05;3.10;;;2.80;;
49139;SDS011;34959;49.310;8.646;2023-05-21T04:17:31;2.60;;;2.40;;
49139;SDS011;34959;49.310;8.646;2023-05-21T04:19:57;3.05;;;2.75;;
49139;SDS011;34959;49.310;8.646;2023-05-21T04:22:22;2.80;;;2.50;;
49139;SDS011;34959;49.310;8.646;2023-05-21T04:24:50;2.88;;;2.58;;
49139;SDS011;34959;49.310;8.646;2023-05-21T04:27:16;2.97;;;2.53;;
49139;SDS011;34959;49.310;8.646;2023-05-21T04:29:43;3.63;;;3.22;;
49139;SDS011;34959;49.310;8.646;2023-05-21T04:32:08;3.20;;;2.90;;
49139;SDS011;34959;49.310;8.646;2023-05-21T04:34:34;3.00;;;2.70;;
49139;SDS011;34959;49.310;8.646;2023-05-21T04:36:59;3.00;;;2.70;;
49139;SDS011;34959;49.310;8.646;2023-05-21T04:39:26;2.80;;;2.60;;
49139;SDS011;34959;49.310;8.646;2023-05-21T04:41:52;3.22;;;2.55;;
49139;SDS011;34959;49.310;8.646;2023-05-21T04:44:20;2.72;;;2.47;;
49139;SDS011;34959;49.310;8.646;2023-05-21T04:46:46;3.30;;;2.80;;
49139;SDS011;34959;49.310;8.646;2023-05-21T04:49:13;3.55;;;2.88;;
49139;SDS011;34959;49.310;8.646;2023-05-21T04:51:39;2.55;;;2.20;;
49139;SDS011;34959;49.310;8.646;2023-05-21T04:54:05;3.33;;;2.85;;
49139;SDS011;34959;49.310;8.646;2023-05-21T04:56:31;3.40;;;2.90;;
49139;SDS011;34959;49.310;8.646;2023-05-21T04:58:57;3.25;;;2.65;;
49139;SDS011;34959;49.310;8.646;2023-05-21T05:01:23;2.95;;;2.63;;
49139;SDS011;34959;49.310;8.646;2023-05-21T05:03:49;3.83;;;2.72;;
49139;SDS011;34959;49.310;8.646;2023-05-21T05:06:15;3.00;;;2.70;;
49139;SDS011;34959;49.310;8.646;2023-05-21T05:08:40;3.20;;;2.60;;
49139;SDS011;34959;49.310;8.646;2023-05-21T05:11:06;3.40;;;3.00;;
49139;SDS011;34959;49.310;8.646;2023-05-21T05:13:32;2.70;;;2.38;;
49139;SDS011;34959;49.310;8.646;2023-05-21T05:15:58;3.10;;;2.80;;
49139;SDS011;34959;49.310;8.646;2023-05-21T05:18:24;3.50;;;2.80;;
49139;SDS011;34959;49.310;8.646;2023-05-21T05:20:49;2.70;;;2.50;;
49139;SDS011;34959;49.310;8.646;2023-05-21T05:23:15;2.80;;;2.60;;
49139;SDS011;34959;49.310;8.646;2023-05-21T05:25:40;3.25;;;2.78;;
49139;SDS011;34959;49.310;8.646;2023-05-21T05:28:06;3.05;;;2.60;;
49139;SDS011;34959;49.310;8.646;2023-05-21T05:30:31;3.15;;;2.80;;
49139;SDS011;34959;49.310;8.646;2023-05-21T05:32:57;3.10;;;2.80;;
49139;SDS011;34959;49.310;8.646;2023-05-21T05:35:22;3.15;;;2.80;;
49139;SDS011;34959;49.310;8.646;2023-05-21T05:37:47;3.28;;;2.97;;
49139;SDS011;34959;49.310;8.646;2023-05-21T05:40:13;2.83;;;2.58;;
49139;SDS011;34959;49.310;8.646;2023-05-21T05:42:38;3.03;;;2.67;;
49139;SDS011;34959;49.310;8.646;2023-05-21T05:45:04;3.58;;;3.05;;
49139;SDS011;34959;49.310;8.646;2023-05-21T05:47:30;3.28;;;2.90;;
49139;SDS011;34959;49.310;8.646;2023-05-21T05:49:55;3.22;;;2.60;;
49139;SDS011;34959;49.310;8.646;2023-05-21T05:52:21;3.67;;;2.92;;
49139;SDS011;34959;49.310;8.646;2023-05-21T05:54:46;3.47;;;2.90;;
49139;SDS011;34959;49.310;8.646;2023-05-21T05:57:11;3.08;;;2.70;;
49139;SDS011;34959;49.310;8.646;2023-05-21T05:59:37;2.72;;;2.53;;
49139;SDS011;34959;49.310;8.646;2023-05-21T06:02:02;3.22;;;2.80;;
49139;SDS011;34959;49.310;8.646;2023-05-21T06:04:28;3.50;;;2.70;;
49139;SDS011;34959;49.310;8.646;2023-05-21T06:06:55;2.90;;;2.60;;
49139;SDS011;34959;49.310;8.646;2023-05-21T06:09:27;3.45;;;3.15;;
49139;SDS011;34959;49.310;8.646;2023-05-21T06:11:52;3.20;;;2.90;;
49139;SDS011;34959;49.310;8.646;2023-05-21T06:14:18;3.20;;;2.90;;
49139;SDS011;34959;49.310;8.646;2023-05-21T06:16:43;3.17;;;2.70;;
49139;SDS011;34959;49.310;8.646;2023-05-21T06:19:09;3.50;;;3.00;;
49139;SDS011;34959;49.310;8.646;2023-05-21T06:21:34;3.28;;;2.88;;
49139;SDS011;34959;49.310;8.646;2023-05-21T06:24:00;3.30;;;3.00;;
49139;SDS011;34959;49.310;8.646;2023-05-21T06:26:25;2.95;;;2.50;;
49139;SDS011;34959;49.310;8.646;2023-05-21T06:28:50;3.63;;;3.10;;
49139;SDS011;34959;49.310;8.646;2023-05-21T06:31:16;3.45;;;2.97;;
49139;SDS011;34959;49.310;8.646;2023-05-21T06:33:41;3.05;;;2.75;;
49139;SDS011;34959;49.310;8.646;2023-05-21T06:36:07;2.97;;;2.72;;
49139;SDS011;34959;49.310;8.646;2023-05-21T06:38:33;3.38;;;3.08;;
49139;SDS011;34959;49.310;8.646;2023-05-21T06:40:58;3.22;;;2.90;;
49139;SDS011;34959;49.310;8.646;2023-05-21T06:43:23;3.30;;;3.00;;
49139;SDS011;34959;49.310;8.646;2023-05-21T06:45:49;3.28;;;2.90;;
49139;SDS011;34959;49.310;8.646;2023-05-21T06:48:14;3.25;;;2.90;;
49139;SDS011;34959;49.310;8.646;2023-05-21T06:50:41;3.83;;;2.97;;
49139;SDS011;34959;49.310;8.646;2023-05-21T06:53:07;3.45;;;3.08;;
49139;SDS011;34959;49.310;8.646;2023-05-21T06:55:33;4.03;;;3.00;;
49139;SDS011;34959;49.310;8.646;2023-05-21T06:57:58;3.40;;;2.83;;
49139;SDS011;34959;49.310;8.646;2023-05-21T07:00:24;3.85;;;3.20;;
49139;SDS011;34959;49.310;8.646;2023-05-21T07:02:49;3.10;;;2.80;;
49139;SDS011;34959;49.310;8.646;2023-05-21T07:05:15;3.28;;;2.65;;
49139;SDS011;34959;49.310;8.646;2023-05-21T07:07:40;3.28;;;2.85;;
49139;SDS011;34959;49.310;8.646;2023-05-21T07:10:06;3.10;;;2.80;;
49139;SDS011;34959;49.310;8.646;2023-05-21T07:12:32;3.78;;;2.90;;
49139;SDS011;34959;49.310;8.646;2023-05-21T07:14:58;3.40;;;3.00;;
49139;SDS011;34959;49.310;8.646;2023-05-21T07:17:23;3.75;;;2.90;;
49139;SDS011;34959;49.310;8.646;2023-05-21T07:19:48;3.35;;;3.05;;
49139;SDS011;34959;49.310;8.646;2023-05-21T07:22:14;3.10;;;2.80;;
49139;SDS011;34959;49.310;8.646;2023-05-21T07:24:39;3.30;;;2.88;;
49139;SDS011;34959;49.310;8.646;2023-05-21T07:27:05;3.20;;;2.65;;
49139;SDS011;34959;49.310;8.646;2023-05-21T07:29:31;3.33;;;2.90;;
49139;SDS011;34959;49.310;8.646;2023-05-21T07:31:57;3.25;;;2.88;;
49139;SDS011;34959;49.310;8.646;2023-05-21T07:34:23;3.00;;;2.70;;
49139;SDS011;34959;49.310;8.646;2023-05-21T07:36:48;3.42;;;2.92;;
49139;SDS011;34959;49.310;8.646;2023-05-21T07:39:13;3.10;;;2.80;;
49139;SDS011;34959;49.310;8.646;2023-05-21T07:41:39;2.80;;;2.50;;
49139;SDS011;34959;49.310;8.646;2023-05-21T07:44:04;3.35;;;2.90;;
49139;SDS011;34959;49.310;8.646;2023-05-21T07:46:30;3.38;;;2.83;;
49139;SDS011;34959;49.310;8.646;2023-05-21T07:48:56;3.22;;;2.85;;
49139;SDS011;34959;49.310;8.646;2023-05-21T07:51:21;3.00;;;2.70;;
49139;SDS011;34959;49.310;8.646;2023-05-21T07:53:46;3.40;;;2.70;;
49139;SDS011;34959;49.310;8.646;2023-05-21T07:56:12;3.10;;;2.80;;
49139;SDS011;34959;49.310;8.646;2023-05-21T07:58:37;3.38;;;2.80;;
49139;SDS011;34959;49.310;8.646;2023-05-21T08:01:04;3.40;;;2.80;;
49139;SDS011;34959;49.310;8.646;2023-05-21T08:03:30;3.45;;;2.70;;
49139;SDS011;34959;49.310;8.646;2023-05-21T08:05:55;3.40;;;2.95;;
49139;SDS011;34959;49.310;8.646;2023-05-21T08:08:21;3.25;;;2.60;;
49139;SDS011;34959;49.310;8.646;2023-05-21T08:10:47;2.85;;;2.55;;
49139;SDS011;34959;49.310;8.646;2023-05-21T08:13:13;3.20;;;2.90;;
49139;SDS011;34959;49.310;8.646;2023-05-21T08:15:39;3.60;;;3.08;;
49139;SDS011;34959;49.310;8.646;2023-05-21T08:18:04;3.03;;;2.42;;
49139;SDS011;34959;49.310;8.646;2023-05-21T08:20:30;3.10;;;2.65;;
49139;SDS011;34959;49.310;8.646;2023-05-21T08:22:57;3.50;;;2.95;;
49139;SDS011;34959;49.310;8.646;2023-05-21T08:25:24;3.03;;;2.70;;
49139;SDS011;34959;49.310;8.646;2023-05-21T08:27:50;3.17;;;2.67;;
49139;SDS011;34959;49.310;8.646;2023-05-21T08:30:15;2.50;;;2.30;;
49139;SDS011;34959;49.310;8.646;2023-05-21T08:32:41;2.78;;;2.47;;
49139;SDS011;34959;49.310;8.646;2023-05-21T08:35:06;2.88;;;2.47;;
49139;SDS011;34959;49.310;8.646;2023-05-21T08:37:32;3.35;;;2.72;;
49139;SDS011;34959;49.310;8.646;2023-05-21T08:39:58;2.60;;;2.40;;
49139;SDS011;34959;49.310;8.646;2023-05-21T08:42:35;3.17;;;2.70;;
49139;SDS011;34959;49.310;8.646;2023-05-21T08:45:04;3.45;;;3.05;;
49139;SDS011;34959;49.310;8.646;2023-05-21T08:47:31;2.53;;;2.30;;
49139;SDS011;34959;49.310;8.646;2023-05-21T08:49:59;2.80;;;2.45;;
49139;SDS011;34959;49.310;8.646;2023-05-21T08:52:29;2.53;;;2.25;;
49139;SDS011;34959;49.310;8.646;2023-05-21T08:54:55;3.60;;;2.95;;
49139;SDS011;34959;49.310;8.646;2023-05-21T08:57:20;2.78;;;2.50;;
49139;SDS011;34959;49.310;8.646;2023-05-21T08:59:47;2.90;;;2.60;;
49139;SDS011;34959;49.310;8.646;2023-05-21T09:02:12;3.17;;;2.88;;
49139;SDS011;34959;49.310;8.646;2023-05-21T09:04:41;2.97;;;2.67;;
49139;SDS011;34959;49.310;8.646;2023-05-21T09:07:07;3.17;;;2.53;;
49139;SDS011;34959;49.310;8.646;2023-05-21T09:09:37;3.15;;;2.80;;
49139;SDS011;34959;49.310;8.646;2023-05-21T09:12:05;2.67;;;2.47;;
49139;SDS011;34959;49.310;8.646;2023-05-21T09:14:31;2.83;;;2.55;;
49139;SDS011;34959;49.310;8.646;2023-05-21T09:16:57;3.38;;;2.85;;
49139;SDS011;34959;49.310;8.646;2023-05-21T09:19:22;2.70;;;2.50;;
49139;SDS011;34959;49.310;8.646;2023-05-21T09:21:49;2.97;;;2.45;;
49139;SDS011;34959;49.310;8.646;2023-05-21T09:24:15;3.03;;;2.72;;
49139;SDS011;34959;49.310;8.646;2023-05-21T09:26:44;3.97;;;2.50;;
49139;SDS011;34959;49.310;8.646;2023-05-21T09:29:11;3.53;;;3.05;;
49139;SDS011;34959;49.310;8.646;2023-05-21T09:31:40;2.90;;;2.60;;
49139;SDS011;34959;49.310;8.646;2023-05-21T09:34:07;3.28;;;2.97;;
49139;SDS011;34959;49.310;8.646;2023-05-21T09:36:33;3.65;;;2.50;;
49139;SDS011;34959;49.310;8.646;2023-05-21T09:39:02;2.80;;;2.47;;
49139;SDS011;34959;49.310;8.646;2023-05-21T09:41:32;3.05;;;2.75;;
49139;SDS011;34959;49.310;8.646;2023-05-21T09:43:59;2.60;;;2.35;;
49139;SDS011;34959;49.310;8.646;2023-05-21T09:46:38;2.83;;;2.53;;
49139;SDS011;34959;49.310;8.646;2023-05-21T09:49:04;3.15;;;2.53;;
49139;SDS011;34959;49.310;8.646;2023-05-21T09:51:29;3.00;;;2.55;;
49139;SDS011;34959;49.310;8.646;2023-05-21T09:53:56;2.80;;;2.38;;
49139;SDS011;34959;49.310;8.646;2023-05-21T09:56:22;3.42;;;2.80;;
49139;SDS011;34959;49.310;8.646;2023-05-21T09:58:56;2.83;;;2.53;;
49139;SDS011;34959;49.310;8.646;2023-05-21T10:01:24;3.22;;;2.72;;
49139;SDS011;34959;49.310;8.646;2023-05-21T10:03:57;2.60;;;2.40;;
49139;SDS011;34959;49.310;8.646;2023-05-21T10:06:27;3.08;;;2.78;;
49139;SDS011;34959;49.310;8.646;2023-05-21T10:08:54;2.95;;;2.63;;
49139;SDS011;34959;49.310;8.646;2023-05-21T10:11:24;2.78;;;2.47;;
49139;SDS011;34959;49.310;8.646;2023-05-21T10:13:59;3.20;;;2.78;;
49139;SDS011;34959;49.310;8.646;2023-05-21T10:16:30;3.00;;;2.65;;
49139;SDS011;34959;49.310;8.646;2023-05-21T10:18:57;2.67;;;2.45;;
49139;SDS011;34959;49.310;8.646;2023-05-21T10:21:23;2.97;;;2.63;;
49139;SDS011;34959;49.310;8.646;2023-05-21T10:23:48;3.53;;;2.72;;
49139;SDS011;34959;49.310;8.646;2023-05-21T10:26:15;3.55;;;2.90;;
49139;SDS011;34959;49.310;8.646;2023-05-21T10:28:40;3.33;;;2.80;;
49139;SDS011;34959;49.310;8.646;2023-05-21T10:31:06;2.95;;;2.30;;
49139;SDS011;34959;49.310;8.646;2023-05-21T10:33:31;2.80;;;2.47;;
49139;SDS011;34959;49.310;8.646;2023-05-21T10:35:59;3.33;;;2.70;;
49139;SDS011;34959;49.310;8.646;2023-05-21T10:38:25;2.80;;;2.38;;
49139;SDS011;34959;49.310;8.646;2023-05-21T10:40:51;2.88;;;2.50;;
49139;SDS011;34959;49.310;8.646;2023-05-21T10:46:17;2.83;;;2.40;;
49139;SDS011;34959;49.310;8.646;2023-05-21T10:48:56;2.58;;;2.38;;
49139;SDS011;34959;49.310;8.646;2023-05-21T10:52:06;3.10;;;2.80;;
49139;SDS011;34959;49.310;8.646;2023-05-21T11:00:37;3.05;;;2.72;;
49139;SDS011;34959;49.310;8.646;2023-05-21T11:03:03;3.00;;;2.70;;
49139;SDS011;34959;49.310;8.646;2023-05-21T11:05:38;3.00;;;2.45;;
49139;SDS011;34959;49.310;8.646;2023-05-21T11:08:34;2.97;;;2.60;;
49139;SDS011;34959;49.310;8.646;2023-05-21T11:11:01;2.90;;;2.60;;
49139;SDS011;34959;49.310;8.646;2023-05-21T11:13:28;2.85;;;2.53;;
49139;SDS011;34959;49.310;8.646;2023-05-21T11:21:17;2.83;;;2.53;;
49139;SDS011;34959;49.310;8.646;2023-05-21T11:26:14;3.25;;;2.53;;
49139;SDS011;34959;49.310;8.646;2023-05-21T11:28:43;3.05;;;2.58;;
49139;SDS011;34959;49.310;8.646;2023-05-21T11:36:42;2.80;;;2.40;;
49139;SDS011;34959;49.310;8.646;2023-05-21T11:39:18;2.83;;;2.58;;
49139;SDS011;34959;49.310;8.646;2023-05-21T11:42:00;3.63;;;2.88;;
49139;SDS011;34959;49.310;8.646;2023-05-21T11:44:39;2.85;;;2.55;;
49139;SDS011;34959;49.310;8.646;2023-05-21T11:47:14;3.20;;;2.40;;
49139;SDS011;34959;49.310;8.646;2023-05-21T11:49:40;2.50;;;2.30;;
49139;SDS011;34959;49.310;8.646;2023-05-21T11:52:07;3.00;;;2.50;;
49139;SDS011;34959;49.310;8.646;2023-05-21T11:54:41;2.92;;;2.63;;
49139;SDS011;34959;49.310;8.646;2023-05-21T11:57:10;3.10;;;2.70;;
49139;SDS011;34959;49.310;8.646;2023-05-21T11:59:36;3.35;;;2.95;;
49139;SDS011;34959;49.310;8.646;2023-05-21T12:02:02;3.08;;;2.67;;
49139;SDS011;34959;49.310;8.646;2023-05-21T12:04:32;3.20;;;2.88;;
49139;SDS011;34959;49.310;8.646;2023-05-21T12:07:08;2.60;;;2.30;;
49139;SDS011;34959;49.310;8.646;2023-05-21T12:09:37;2.38;;;2.10;;
49139;SDS011;34959;49.310;8.646;2023-05-21T12:12:06;2.75;;;2.53;;
49139;SDS011;34959;49.310;8.646;2023-05-21T12:14:32;3.50;;;2.80;;
49139;SDS011;34959;49.310;8.646;2023-05-21T12:16:58;3.03;;;2.55;;
49139;SDS011;34959;49.310;8.646;2023-05-21T12:19:24;3.35;;;3.05;;
49139;SDS011;34959;49.310;8.646;2023-05-21T12:21:49;3.15;;;2.75;;
49139;SDS011;34959;49.310;8.646;2023-05-21T12:24:15;2.95;;;2.65;;
49139;SDS011;34959;49.310;8.646;2023-05-21T12:26:40;3.20;;;2.90;;
49139;SDS011;34959;49.310;8.646;2023-05-21T12:29:08;2.95;;;2.67;;
49139;SDS011;34959;49.310;8.646;2023-05-21T12:31:36;3.10;;;2.58;;
49139;SDS011;34959;49.310;8.646;2023-05-21T12:34:11;2.55;;;2.30;;
49139;SDS011;34959;49.310;8.646;2023-05-21T12:36:36;3.13;;;2.75;;
49139;SDS011;34959;49.310;8.646;2023-05-21T12:39:02;3.20;;;2.90;;
49139;SDS011;34959;49.310;8.646;2023-05-21T12:41:28;2.72;;;2.53;;
49139;SDS011;34959;49.310;8.646;2023-05-21T12:43:53;2.60;;;2.30;;
49139;SDS011;34959;49.310;8.646;2023-05-21T12:46:19;3.17;;;2.70;;
49139;SDS011;34959;49.310;8.646;2023-05-21T12:48:54;3.08;;;2.67;;
49139;SDS011;34959;49.310;8.646;2023-05-21T12:51:20;2.85;;;2.58;;
49139;SDS011;34959;49.310;8.646;2023-05-21T12:53:46;3.22;;;2.83;;
49139;SDS011;34959;49.310;8.646;2023-05-21T12:56:11;2.88;;;2.58;;
49139;SDS011;34959;49.310;8.646;2023-05-21T12:58:38;2.90;;;2.60;;
49139;SDS011;34959;49.310;8.646;2023-05-21T13:01:10;2.70;;;2.50;;
49139;SDS011;34959;49.310;8.646;2023-05-21T13:03:42;2.72;;;2.42;;
49139;SDS011;34959;49.310;8.646;2023-05-21T13:06:08;2.72;;;2.47;;
49139;SDS011;34959;49.310;8.646;2023-05-21T13:08:33;3.22;;;2.70;;
49139;SDS011;34959;49.310;8.646;2023-05-21T13:11:02;2.97;;;2.67;;
49139;SDS011;34959;49.310;8.646;2023-05-21T13:13:28;3.42;;;2.90;;
49139;SDS011;34959;49.310;8.646;2023-05-21T13:15:53;3.00;;;2.65;;
49139;SDS011;34959;49.310;8.646;2023-05-21T13:18:22;2.95;;;2.67;;
49139;SDS011;34959;49.310;8.646;2023-05-21T13:20:48;3.20;;;2.65;;
49139;SDS011;34959;49.310;8.646;2023-05-21T13:23:13;2.97;;;2.67;;
49139;SDS011;34959;49.310;8.646;2023-05-21T13:25:40;3.03;;;2.65;;
49139;SDS011;34959;49.310;8.646;2023-05-21T13:28:06;2.88;;;2.35;;
49139;SDS011;34959;49.310;8.646;2023-05-21T13:30:34;4.18;;;2.80;;
49139;SDS011;34959;49.310;8.646;2023-05-21T13:33:00;2.85;;;2.55;;
49139;SDS011;34959;49.310;8.646;2023-05-21T13:35:25;3.05;;;2.75;;
49139;SDS011;34959;49.310;8.646;2023-05-21T13:37:51;3.35;;;2.70;;
49139;SDS011;34959;49.310;8.646;2023-05-21T13:40:16;2.92;;;2.47;;
49139;SDS011;34959;49.310;8.646;2023-05-21T13:42:46;3.13;;;2.80;;
49139;SDS011;34959;49.310;8.646;2023-05-21T13:45:13;2.90;;;2.70;;
49139;SDS011;34959;49.310;8.646;2023-05-21T13:47:40;3.00;;;2.70;;
49139;SDS011;34959;49.310;8.646;2023-05-21T13:50:07;3.22;;;2.78;;
49139;SDS011;34959;49.310;8.646;2023-05-21T13:52:33;3.25;;;2.80;;
49139;SDS011;34959;49.310;8.646;2023-05-21T13:54:58;2.83;;;2.40;;
49139;SDS011;34959;49.310;8.646;2023-05-21T13:57:24;3.30;;;2.35;;
49139;SDS011;34959;49.310;8.646;2023-05-21T13:59:54;2.72;;;2.25;;
49139;SDS011;34959;49.310;8.646;2023-05-21T14:02:20;2.60;;;2.40;;
49139;SDS011;34959;49.310;8.646;2023-05-21T14:04:45;3.08;;;2.78;;
49139;SDS011;34959;49.310;8.646;2023-05-21T14:07:11;3.35;;;2.47;;
49139;SDS011;34959;49.310;8.646;2023-05-21T14:09:36;3.30;;;2.83;;
49139;SDS011;34959;49.310;8.646;2023-05-21T14:12:02;3.35;;;2.78;;
49139;SDS011;34959;49.310;8.646;2023-05-21T14:14:29;3.60;;;2.75;;
49139;SDS011;34959;49.310;8.646;2023-05-21T14:16:55;3.83;;;2.67;;
49139;SDS011;34959;49.310;8.646;2023-05-21T14:19:21;3.20;;;2.72;;
49139;SDS011;34959;49.310;8.646;2023-05-21T14:21:46;4.00;;;2.80;;
49139;SDS011;34959;49.310;8.646;2023-05-21T14:24:11;3.47;;;2.90;;
49139;SDS011;34959;49.310;8.646;2023-05-21T14:26:38;3.28;;;2.63;;
49139;SDS011;34959;49.310;8.646;2023-05-21T14:29:04;3.42;;;2.72;;
49139;SDS011;34959;49.310;8.646;2023-05-21T14:31:30;4.95;;;2.72;;
49139;SDS011;34959;49.310;8.646;2023-05-21T14:33:55;4.00;;;3.10;;
49139;SDS011;34959;49.310;8.646;2023-05-21T14:36:21;3.35;;;2.70;;
49139;SDS011;34959;49.310;8.646;2023-05-21T14:38:46;3.28;;;2.85;;
49139;SDS011;34959;49.310;8.646;2023-05-21T14:41:11;2.92;;;2.60;;
49139;SDS011;34959;49.310;8.646;2023-05-21T14:43:37;2.97;;;2.53;;
49139;SDS011;34959;49.310;8.646;2023-05-21T14:46:02;3.63;;;3.00;;
49139;SDS011;34959;49.310;8.646;2023-05-21T14:48:28;4.32;;;2.75;;
49139;SDS011;34959;49.310;8.646;2023-05-21T14:50:53;4.00;;;2.83;;
49139;SDS011;34959;49.310;8.646;2023-05-21T14:53:18;3.30;;;2.75;;
49139;SDS011;34959;49.310;8.646;2023-05-21T14:55:44;3.80;;;3.20;;
49139;SDS011;34959;49.310;8.646;2023-05-21T14:58:10;4.28;;;2.78;;
49139;SDS011;34959;49.310;8.646;2023-05-21T15:00:36;3.42;;;3.13;;
49139;SDS011;34959;49.310;8.646;2023-05-21T15:03:02;3.53;;;2.95;;
49139;SDS011;34959;49.310;8.646;2023-05-21T15:05:28;3.55;;;2.80;;
49139;SDS011;34959;49.310;8.646;2023-05-21T15:07:57;3.67;;;2.92;;